Adrian, Missouri
Current Conditions -  °F | °C
As of 1:35 AM on Thursday 18 Dec 2014 (Local Time) from KGLY Reporting Station
Light Snow Light Snow  
Wind Chill:   Ceiling: 100
Heat Index:   Visibility: 1mi
Dew Point:   Wind: 0mph
Humidity: 100%   Direction: NA
Pressure: 30.24"   Gusts: NA
Location:  38.4°N, 94.35°W
Report Text: KGLY 180735Z AUTO 00000KT 1SM -SN OVC001 00/00 A3024 RMK AO2 P0033
Loading
Personal Weather Stations






























Interactive Weather Map New forecast layout! Learn more

10-Day Weather Forecast

Advertisements
Track Severe Weather on mobile